X  CloseMetar Aviation Weather Data     KSDL Scottsdale

Temperature

84°F Temperature

36°F Dewpoint

18% Humidity



Wind

 5 MPH

 8 KM/H

 2 M/S

 4 KTS



30°
North North
East
Current Conditions

Clear Clear
Pressure 1010.12 (hPa) - 29.83 (in)
Visibility 10 (mi) - 16.1 (km)
Airport
Airport-code KSDL

Location Scottsdale 15 (mi)

Metar:
KSDL 270553Z AUTO 03004KT 10SM CLR 29/02 A2983 RMK AO2 SLP073 T02940017 10383 20294 51010

Time: 05-26-2020 22:53